createdAt,value
2023-03-21T00:06:28.141Z,12.93
2023-03-21T00:11:51.452Z,10.23
2023-03-21T00:17:00.555Z,12.50
2023-03-21T00:28:05.223Z,9.02
2023-03-21T00:33:22.348Z,11.43
2023-03-21T00:38:27.341Z,15.40
2023-03-21T00:43:30.307Z,15.52
2023-03-21T00:48:32.243Z,9.88
2023-03-21T00:53:33.791Z,9.35
2023-03-21T00:58:35.329Z,10.93
2023-03-21T01:03:42.809Z,9.38
2023-03-21T01:08:52.550Z,11.73
2023-03-21T01:14:07.385Z,10.00
2023-03-21T01:19:25.414Z,9.13
2023-03-21T01:24:31.284Z,8.35
2023-03-21T01:29:36.990Z,19.85
2023-03-21T01:34:42.238Z,9.00
2023-03-21T01:39:45.998Z,10.35
2023-03-21T01:45:05.072Z,10.43
2023-03-21T01:50:36.717Z,12.23
2023-03-21T01:56:33.762Z,8.63
2023-03-21T02:01:49.059Z,8.18
2023-03-21T02:07:16.077Z,14.80
2023-03-21T02:12:31.677Z,11.38
2023-03-21T02:18:03.201Z,10.27
2023-03-21T02:23:58.628Z,9.77
2023-03-21T02:29:19.338Z,12.88
2023-03-21T02:35:00.799Z,9.30
2023-03-21T02:40:29.248Z,12.13
2023-03-21T02:51:03.963Z,9.00
2023-03-21T02:56:10.674Z,14.48
2023-03-21T03:01:20.064Z,11.57
2023-03-21T03:06:34.349Z,9.73
2023-03-21T03:11:47.216Z,11.50
2023-03-21T03:17:24.091Z,10.45
2023-03-21T03:22:39.449Z,15.60
2023-03-21T03:27:47.449Z,12.02
2023-03-21T03:32:56.768Z,12.38
2023-03-21T03:38:05.090Z,11.35
2023-03-21T03:43:22.973Z,12.95
2023-03-21T03:48:54.014Z,13.82
2023-03-21T03:54:14.454Z,14.18
2023-03-21T03:59:29.719Z,15.00
2023-03-21T04:04:49.948Z,12.52
2023-03-21T04:09:54.907Z,14.10
2023-03-21T04:20:30.275Z,14.60
2023-03-21T04:25:55.799Z,16.38
2023-03-21T04:31:25.968Z,16.08
2023-03-21T04:36:46.815Z,16.85
2023-03-21T04:41:52.981Z,16.55
2023-03-21T04:46:55.630Z,13.90
2023-03-21T04:51:57.661Z,13.75
2023-03-21T04:57:17.796Z,13.73
2023-03-21T05:02:27.093Z,13.27
2023-03-21T05:07:38.489Z,16.73
2023-03-21T05:12:44.247Z,15.98
2023-03-21T05:17:56.998Z,16.55
2023-03-21T05:23:06.231Z,13.75
2023-03-21T05:28:27.884Z,13.00
2023-03-21T05:33:33.061Z,16.00
2023-03-21T05:39:07.205Z,15.13
2023-03-21T05:44:25.280Z,16.15
2023-03-21T05:49:44.424Z,15.80
2023-03-21T05:54:52.037Z,8.30
2023-03-21T06:00:14.289Z,10.65
2023-03-21T06:05:48.059Z,14.10
2023-03-21T06:16:46.500Z,12.82
2023-03-21T06:22:53.849Z,10.18
2023-03-21T06:34:09.712Z,11.82
2023-03-21T06:39:28.779Z,13.20
2023-03-21T06:44:42.906Z,14.77
2023-03-21T06:49:53.298Z,12.20
2023-03-21T06:55:15.867Z,9.43
2023-03-21T07:00:30.446Z,10.48
2023-03-21T07:05:51.338Z,10.27
2023-03-21T07:16:39.862Z,7.78
2023-03-21T07:22:08.346Z,9.95
2023-03-21T07:27:41.033Z,12.05
2023-03-21T07:32:45.625Z,9.37
2023-03-21T07:37:47.197Z,10.00
2023-03-21T07:42:51.177Z,5.65
2023-03-21T07:48:04.052Z,12.93
2023-03-21T07:53:08.970Z,5.78
2023-03-21T07:58:10.614Z,7.45
2023-03-21T08:03:13.169Z,7.88
2023-03-21T08:08:15.221Z,7.68
2023-03-21T08:13:16.815Z,7.50
2023-03-21T08:18:18.530Z,7.00
2023-03-21T08:23:21.676Z,8.38
2023-03-21T08:28:30.427Z,7.57
2023-03-21T08:33:32.680Z,6.55
2023-03-21T08:45:45.039Z,6.22
2023-03-21T08:50:52.295Z,6.53
2023-03-21T08:56:05.349Z,6.35
2023-03-21T09:07:11.271Z,5.82
2023-03-21T09:13:35.764Z,6.57
2023-03-21T09:18:50.641Z,6.53
2023-03-21T09:23:55.440Z,7.40
2023-03-21T09:28:58.926Z,6.57
2023-03-21T09:34:04.527Z,6.57
2023-03-21T09:39:06.264Z,4.63
2023-03-21T09:44:45.030Z,6.07
2023-03-21T09:49:54.570Z,6.30
2023-03-21T09:54:57.135Z,5.97
2023-03-21T10:00:08.755Z,5.30
2023-03-21T10:05:30.165Z,4.88
2023-03-21T10:10:38.054Z,4.18
2023-03-21T10:15:40.019Z,6.25
2023-03-21T10:20:42.857Z,6.32
2023-03-21T10:25:49.096Z,9.57
2023-03-21T10:30:52.700Z,5.93
2023-03-21T10:36:02.181Z,6.55
2023-03-21T10:41:03.778Z,6.78
2023-03-21T10:46:12.386Z,10.43
2023-03-21T10:51:21.524Z,5.70
2023-03-21T10:56:27.620Z,9.37
2023-03-21T11:01:39.227Z,9.05
2023-03-21T11:06:43.037Z,7.82
2023-03-21T11:11:56.463Z,6.43
2023-03-21T11:16:58.076Z,7.53
2023-03-21T11:22:06.158Z,6.40
2023-03-21T11:27:08.970Z,6.35
2023-03-21T11:32:35.102Z,5.32
2023-03-21T11:37:36.625Z,6.35
2023-03-21T11:42:54.789Z,8.50
2023-03-21T11:48:01.279Z,9.13
2023-03-21T11:53:26.650Z,5.38
2023-03-21T11:58:52.061Z,5.95
2023-03-21T12:04:29.318Z,9.13
2023-03-21T12:09:44.948Z,5.50
2023-03-21T12:15:21.131Z,5.80
2023-03-21T12:20:54.341Z,6.85
2023-03-21T12:26:11.194Z,9.13
2023-03-21T12:31:38.178Z,7.15
2023-03-21T12:37:01.884Z,8.52
2023-03-21T12:42:20.658Z,11.85
2023-03-21T12:47:29.876Z,8.43
2023-03-21T12:52:37.012Z,12.77
2023-03-21T12:57:57.574Z,10.48
2023-03-21T13:03:02.795Z,9.23
2023-03-21T13:08:13.565Z,11.98
2023-03-21T13:13:21.133Z,10.27
2023-03-21T13:18:43.664Z,9.02
2023-03-21T13:24:23.763Z,9.93
2023-03-21T13:29:44.162Z,7.83
2023-03-21T13:34:46.441Z,10.55
2023-03-21T13:39:49.767Z,8.52
2023-03-21T13:44:58.135Z,11.10
2023-03-21T13:50:18.227Z,8.48
2023-03-21T14:31:19.136Z,8.80
2023-03-21T14:49:44.828Z,9.27
2023-03-21T14:55:36.063Z,11.52
2023-03-21T15:07:40.337Z,8.73
2023-03-21T15:37:06.155Z,9.35
2023-03-21T15:48:13.979Z,8.50
2023-03-21T16:12:03.647Z,8.27
2023-03-21T16:17:40.356Z,7.45
2023-03-21T16:22:48.757Z,8.85
2023-03-21T16:27:56.593Z,10.55
2023-03-21T16:33:28.421Z,8.60
2023-03-21T16:38:32.790Z,10.23
2023-03-21T16:43:34.519Z,8.38
2023-03-21T16:48:36.366Z,7.90
2023-03-21T16:53:38.040Z,8.35
2023-03-21T16:58:39.725Z,6.38
2023-03-21T17:03:45.449Z,11.20
2023-03-21T17:08:50.854Z,8.40
2023-03-21T17:13:54.884Z,5.88
2023-03-21T17:18:56.518Z,9.13
2023-03-21T17:24:09.765Z,5.97
2023-03-21T17:29:39.103Z,7.22
2023-03-21T17:35:12.843Z,6.93
2023-03-21T17:41:16.053Z,6.50
2023-03-21T17:47:21.013Z,7.78
2023-03-21T17:53:26.024Z,5.70
2023-03-21T17:59:15.919Z,8.45
2023-03-21T18:05:16.101Z,6.90
2023-03-21T18:10:54.870Z,6.40
2023-03-21T18:16:37.153Z,6.90
2023-03-21T18:22:11.968Z,5.15
2023-03-21T18:27:14.402Z,5.40
2023-03-21T18:32:16.021Z,6.05
2023-03-21T18:37:18.367Z,5.63
2023-03-21T18:42:22.072Z,6.38
2023-03-21T18:47:25.140Z,7.80
2023-03-21T18:52:27.155Z,6.20
2023-03-21T18:57:38.176Z,4.38
2023-03-21T19:02:46.251Z,13.70
2023-03-21T19:07:50.401Z,5.90
2023-03-21T19:12:53.343Z,8.15
2023-03-21T19:23:18.525Z,7.10
2023-03-21T19:28:20.331Z,6.97
2023-03-21T19:33:22.715Z,5.97
2023-03-21T19:38:24.353Z,6.55
2023-03-21T19:43:32.744Z,5.15
2023-03-21T19:48:34.949Z,8.73
2023-03-21T19:53:40.334Z,6.75
2023-03-21T19:58:42.286Z,5.20
2023-03-21T20:03:47.211Z,5.43
2023-03-21T20:14:10.684Z,8.88
2023-03-21T20:19:13.332Z,6.78
2023-03-21T20:24:16.368Z,10.45
2023-03-21T20:34:40.335Z,8.43
2023-03-21T20:39:42.652Z,6.43
2023-03-21T20:44:57.776Z,10.10
2023-03-21T20:49:59.815Z,7.55
2023-03-21T20:55:01.561Z,9.30
2023-03-21T21:00:13.244Z,8.82
2023-03-21T21:05:25.810Z,12.77
2023-03-21T21:10:33.513Z,8.05
2023-03-21T21:15:37.345Z,8.10
2023-03-21T21:20:39.364Z,8.23
2023-03-21T21:25:41.123Z,7.28
2023-03-21T21:30:42.774Z,10.20
2023-03-21T21:35:47.937Z,11.10
2023-03-21T21:40:51.746Z,6.43
2023-03-21T21:45:53.996Z,8.98
2023-03-21T21:50:55.904Z,5.97
2023-03-21T21:55:57.409Z,6.43
2023-03-21T22:01:01.222Z,7.90
2023-03-21T22:06:04.484Z,6.82
2023-03-21T22:11:06.687Z,5.47
2023-03-21T22:16:08.575Z,8.00
2023-03-21T22:21:10.434Z,10.02
2023-03-21T22:26:12.036Z,5.22
2023-03-21T22:31:16.579Z,9.45
2023-03-21T22:36:18.197Z,8.00
2023-03-21T22:41:19.867Z,8.55
2023-03-21T22:46:21.568Z,6.70
2023-03-21T22:51:23.134Z,7.18
2023-03-21T22:56:24.757Z,5.88
2023-03-21T23:01:26.462Z,6.22
2023-03-21T23:06:28.085Z,7.72
2023-03-21T23:11:29.717Z,9.23
2023-03-21T23:16:31.829Z,9.82
2023-03-21T23:21:35.108Z,6.75
2023-03-21T23:26:36.838Z,10.00
2023-03-21T23:31:38.432Z,7.57
2023-03-21T23:36:40.698Z,9.65
2023-03-21T23:41:45.061Z,12.20
2023-03-21T23:46:46.661Z,8.00
2023-03-21T23:51:48.200Z,8.80
2023-03-21T23:56:49.812Z,7.78
